createdAt,value
2023-03-12T00:00:11.340Z,25.98
2023-03-12T00:03:14.645Z,26.73
2023-03-12T00:06:20.301Z,23.77
2023-03-12T00:09:23.516Z,24.83
2023-03-12T00:12:26.775Z,24.75
2023-03-12T00:15:33.016Z,27.67
2023-03-12T00:18:36.139Z,29.33
2023-03-12T00:21:40.902Z,24.45
2023-03-12T00:24:44.133Z,30.92
2023-03-12T00:27:47.249Z,22.83
2023-03-12T00:30:52.061Z,21.35
2023-03-12T00:33:55.502Z,18.80
2023-03-12T00:37:00.093Z,24.17
2023-03-12T00:40:06.052Z,22.65
2023-03-12T00:43:09.341Z,23.17
2023-03-12T00:46:12.567Z,17.13
2023-03-12T00:49:15.692Z,21.05
2023-03-12T00:52:20.513Z,18.80
2023-03-12T00:55:23.704Z,17.58
2023-03-12T00:58:26.819Z,17.42
2023-03-12T01:01:29.973Z,18.60
2023-03-12T01:04:33.166Z,15.32
2023-03-12T01:07:37.839Z,15.93
2023-03-12T01:10:43.302Z,18.35
2023-03-12T01:13:47.314Z,17.63
2023-03-12T01:16:52.575Z,17.45
2023-03-12T01:19:56.823Z,18.90
2023-03-12T01:23:01.336Z,15.65
2023-03-12T01:26:04.667Z,20.85
2023-03-12T01:29:07.802Z,17.52
2023-03-12T01:32:11.291Z,17.38
2023-03-12T01:35:14.623Z,19.45
2023-03-12T01:38:20.775Z,21.45
2023-03-12T01:41:25.720Z,15.45
2023-03-12T01:44:29.532Z,17.63
2023-03-12T01:47:32.984Z,15.30
2023-03-12T01:50:39.738Z,16.58
2023-03-12T01:53:48.123Z,16.05
2023-03-12T01:56:55.067Z,18.40
2023-03-12T02:00:02.147Z,15.02
2023-03-12T02:03:08.826Z,18.10
2023-03-12T02:06:15.536Z,18.83
2023-03-12T02:09:22.063Z,17.83
2023-03-12T02:12:26.733Z,18.17
2023-03-12T02:15:30.186Z,18.52
2023-03-12T02:18:35.893Z,19.60
2023-03-12T02:21:40.430Z,19.23
2023-03-12T02:24:49.662Z,21.73
2023-03-12T02:27:54.196Z,19.95
2023-03-12T02:31:01.688Z,19.00
2023-03-12T02:34:05.392Z,16.17
2023-03-12T02:37:08.891Z,14.75
2023-03-12T02:40:19.180Z,18.30
2023-03-12T02:43:24.709Z,16.30
2023-03-12T02:46:30.116Z,14.30
2023-03-12T02:49:35.010Z,16.38
2023-03-12T02:52:38.261Z,13.68
2023-03-12T02:55:41.397Z,14.50
2023-03-12T02:58:45.902Z,16.13
2023-03-12T03:01:53.797Z,16.20
2023-03-12T03:08:00.649Z,16.10
2023-03-12T03:11:04.497Z,17.50
2023-03-12T03:14:10.421Z,15.25
2023-03-12T03:17:13.991Z,16.50
2023-03-12T03:20:17.197Z,16.17
2023-03-12T03:23:20.282Z,15.70
2023-03-12T03:26:24.624Z,15.48
2023-03-12T03:29:29.917Z,14.93
2023-03-12T03:32:33.721Z,15.98
2023-03-12T03:35:37.073Z,17.02
2023-03-12T03:38:40.213Z,14.27
2023-03-12T03:41:43.643Z,13.15
2023-03-12T03:44:48.223Z,13.93
2023-03-12T03:47:52.339Z,18.13
2023-03-12T03:50:55.527Z,15.52
2023-03-12T03:54:00.319Z,16.23
2023-03-12T03:57:03.764Z,13.73
2023-03-12T04:00:13.107Z,17.08
2023-03-12T04:03:20.405Z,15.98
2023-03-12T04:06:29.600Z,15.48
2023-03-12T04:09:32.813Z,17.15
2023-03-12T04:12:36.006Z,15.40
2023-03-12T04:15:47.637Z,12.68
2023-03-12T04:18:50.934Z,13.90
2023-03-12T04:21:54.213Z,13.82
2023-03-12T04:24:57.710Z,14.95
2023-03-12T04:28:01.261Z,18.15
2023-03-12T04:34:20.401Z,15.07
2023-03-12T04:37:26.065Z,15.55
2023-03-12T04:40:29.685Z,13.02
2023-03-12T04:43:33.459Z,18.35
2023-03-12T04:46:37.415Z,13.13
2023-03-12T04:49:42.326Z,17.67
2023-03-12T04:52:45.679Z,13.20
2023-03-12T04:55:49.055Z,11.50
2023-03-12T04:58:53.937Z,13.25
2023-03-12T05:01:57.512Z,16.10
2023-03-12T05:05:06.904Z,15.95
2023-03-12T05:08:11.294Z,13.80
2023-03-12T05:11:15.252Z,17.98
2023-03-12T05:14:18.581Z,13.18
2023-03-12T05:17:23.634Z,13.10
2023-03-12T05:20:28.303Z,14.15
2023-03-12T05:23:32.562Z,13.30
2023-03-12T05:26:36.506Z,14.25
2023-03-12T05:29:47.537Z,12.80
2023-03-12T05:32:51.316Z,13.65
2023-03-12T05:35:56.533Z,15.05
2023-03-12T05:38:59.993Z,11.10
2023-03-12T05:42:06.806Z,14.00
2023-03-12T05:45:11.919Z,11.45
2023-03-12T05:51:23.423Z,14.32
2023-03-12T05:54:26.866Z,14.65
2023-03-12T05:57:30.788Z,14.18
2023-03-12T06:00:37.968Z,10.77
2023-03-12T06:03:43.260Z,13.27
2023-03-12T06:06:48.057Z,12.52
2023-03-12T06:09:51.897Z,14.63
2023-03-12T06:12:55.683Z,11.55
2023-03-12T06:16:03.142Z,11.20
2023-03-12T06:19:06.645Z,11.68
2023-03-12T06:22:11.533Z,13.43
2023-03-12T06:25:14.791Z,9.80
2023-03-12T06:28:17.974Z,12.18
2023-03-12T06:31:22.278Z,12.07
2023-03-12T06:34:25.452Z,12.13
2023-03-12T06:37:29.986Z,13.07
2023-03-12T06:40:33.150Z,13.52
2023-03-12T06:43:37.835Z,10.90
2023-03-12T06:46:42.741Z,11.82
2023-03-12T06:49:46.173Z,11.02
2023-03-12T06:52:51.001Z,12.60
2023-03-12T06:55:54.202Z,13.55
2023-03-12T06:58:57.681Z,10.52
2023-03-12T07:02:01.126Z,8.80
2023-03-12T07:05:04.809Z,8.30
2023-03-12T07:08:09.312Z,8.45
2023-03-12T07:11:13.531Z,8.50
2023-03-12T07:14:16.713Z,7.60
2023-03-12T07:17:19.868Z,9.57
2023-03-12T07:20:23.153Z,7.53
2023-03-12T07:23:27.804Z,10.73
2023-03-12T07:26:30.933Z,9.13
2023-03-12T07:29:34.103Z,7.78
2023-03-12T07:32:37.653Z,8.85
2023-03-12T07:35:41.091Z,9.85
2023-03-12T07:38:45.775Z,10.98
2023-03-12T07:41:49.381Z,8.95
2023-03-12T07:44:52.885Z,10.80
2023-03-12T07:47:56.130Z,9.05
2023-03-12T07:50:59.472Z,8.05
2023-03-12T07:54:03.959Z,6.85
2023-03-12T07:57:07.480Z,9.52
2023-03-12T08:00:12.544Z,7.03
2023-03-12T08:03:16.896Z,8.90
2023-03-12T08:06:21.061Z,6.40
2023-03-12T08:09:25.557Z,8.65
2023-03-12T08:12:28.976Z,8.73
2023-03-12T08:15:33.246Z,10.70
2023-03-12T08:18:36.701Z,9.88
2023-03-12T08:21:39.909Z,8.95
2023-03-12T08:24:44.802Z,9.43
2023-03-12T08:27:47.965Z,8.75
2023-03-12T08:30:53.412Z,6.45
2023-03-12T08:33:56.798Z,8.32
2023-03-12T08:37:00.082Z,9.18
2023-03-12T08:40:13.033Z,8.55
2023-03-12T08:43:16.363Z,10.80
2023-03-12T08:46:19.975Z,6.90
2023-03-12T08:49:24.072Z,10.60
2023-03-12T08:52:27.213Z,10.00
2023-03-12T08:55:31.724Z,11.45
2023-03-12T08:58:34.892Z,10.23
2023-03-12T09:01:38.423Z,10.23
2023-03-12T09:04:41.781Z,10.02
2023-03-12T09:07:45.181Z,9.90
2023-03-12T09:10:50.663Z,9.35
2023-03-12T09:14:26.580Z,13.85
2023-03-12T09:17:17.055Z,17.05
2023-03-12T09:20:20.567Z,17.23
2023-03-12T09:23:24.091Z,9.77
2023-03-12T09:26:28.892Z,8.30
2023-03-12T09:29:32.096Z,16.65
2023-03-12T09:32:35.466Z,7.65
2023-03-12T09:35:38.923Z,7.70
2023-03-12T09:38:42.244Z,6.68
2023-03-12T09:41:48.371Z,5.90
2023-03-12T09:44:54.781Z,9.15
2023-03-12T09:48:01.295Z,9.30
2023-03-12T09:51:09.770Z,8.10
2023-03-12T09:54:22.672Z,8.60
2023-03-12T09:57:29.802Z,7.53
2023-03-12T10:00:37.012Z,8.00
2023-03-12T10:03:54.878Z,7.53
2023-03-12T10:07:05.262Z,7.68
2023-03-12T10:10:21.617Z,6.90
2023-03-12T10:13:44.622Z,7.72
2023-03-12T10:17:00.921Z,6.90
2023-03-12T10:20:29.911Z,6.72
2023-03-12T10:23:45.953Z,6.55
2023-03-12T10:26:51.804Z,10.18
2023-03-12T10:29:57.738Z,8.18
2023-03-12T10:34:24.792Z,9.25
2023-03-12T10:37:31.687Z,7.35
2023-03-12T10:40:39.017Z,7.85
2023-03-12T10:43:42.513Z,6.90
2023-03-12T10:46:59.515Z,7.78
2023-03-12T10:50:19.995Z,10.20
2023-03-12T10:53:29.811Z,9.30
2023-03-12T10:56:49.773Z,8.85
2023-03-12T10:59:53.250Z,8.45
2023-03-12T11:02:59.923Z,7.32
2023-03-12T11:06:08.134Z,7.93
2023-03-12T11:09:19.074Z,8.65
2023-03-12T11:12:29.638Z,8.02
2023-03-12T11:15:40.880Z,8.40
2023-03-12T11:18:56.341Z,6.70
2023-03-12T11:22:03.262Z,9.65
2023-03-12T11:25:08.473Z,10.55
2023-03-12T11:28:21.856Z,12.43
2023-03-12T11:31:30.350Z,9.63
2023-03-12T11:34:35.998Z,11.45
2023-03-12T11:37:51.091Z,7.68
2023-03-12T11:41:04.788Z,10.07
2023-03-12T11:44:23.034Z,15.38
2023-03-12T11:47:46.486Z,8.00
2023-03-12T11:51:02.637Z,8.75
2023-03-12T11:54:36.794Z,11.40
2023-03-12T11:57:53.487Z,10.70
2023-03-12T12:01:05.114Z,10.75
2023-03-12T12:04:32.606Z,10.52
2023-03-12T12:07:46.752Z,10.98
2023-03-12T12:11:00.966Z,11.52
2023-03-12T12:14:16.695Z,12.55
2023-03-12T12:17:30.334Z,12.07
2023-03-12T12:20:44.416Z,19.38
2023-03-12T12:23:59.812Z,12.95
2023-03-12T12:27:16.166Z,14.73
2023-03-12T12:30:28.962Z,21.35
2023-03-12T12:33:45.769Z,19.30
2023-03-12T12:36:53.004Z,13.85
2023-03-12T12:40:08.275Z,11.87
2023-03-12T12:43:29.544Z,21.92
2023-03-12T12:46:36.884Z,21.15
2023-03-12T12:49:44.731Z,17.30
2023-03-12T12:52:55.131Z,15.93
2023-03-12T12:56:06.898Z,16.48
2023-03-12T12:59:27.042Z,17.70
2023-03-12T13:02:33.974Z,17.95
2023-03-12T13:05:50.219Z,18.15
2023-03-12T13:09:15.902Z,16.48
2023-03-12T13:12:28.272Z,20.65
2023-03-12T13:15:40.611Z,16.80
2023-03-12T13:18:57.854Z,19.85
2023-03-12T13:22:16.320Z,17.73
2023-03-12T13:25:30.033Z,17.23
2023-03-12T13:28:42.060Z,16.15
2023-03-12T13:31:48.117Z,19.80
2023-03-12T13:34:51.792Z,22.48
2023-03-12T13:38:06.745Z,16.42
2023-03-12T13:41:10.004Z,20.65
2023-03-12T13:44:33.043Z,21.75
2023-03-12T13:47:44.937Z,20.58
2023-03-12T13:50:53.321Z,18.38
2023-03-12T13:54:00.277Z,19.40
2023-03-12T13:57:11.326Z,20.55
2023-03-12T14:00:20.807Z,17.27
2023-03-12T14:03:30.275Z,20.90
2023-03-12T14:06:49.426Z,19.63
2023-03-12T14:10:08.715Z,18.27
2023-03-12T14:13:24.418Z,29.58
2023-03-12T14:16:35.639Z,19.45
2023-03-12T14:19:41.722Z,16.40
2023-03-12T14:22:46.898Z,17.05
2023-03-12T14:25:52.257Z,15.07
2023-03-12T14:29:01.511Z,14.38
2023-03-12T14:32:07.791Z,12.77
2023-03-12T14:35:21.699Z,15.55
2023-03-12T14:38:31.123Z,11.75
2023-03-12T14:41:40.812Z,11.68
2023-03-12T14:44:55.173Z,11.93
2023-03-12T14:47:59.427Z,13.20
2023-03-12T14:51:06.148Z,14.68
2023-03-12T14:54:19.480Z,10.82
2023-03-12T14:57:24.601Z,9.15
2023-03-12T15:00:29.867Z,8.98
2023-03-12T15:03:37.669Z,10.52
2023-03-12T15:09:51.617Z,11.50
2023-03-12T15:12:57.289Z,11.68
2023-03-12T15:16:00.837Z,9.80
2023-03-12T15:19:05.372Z,9.32
2023-03-12T15:22:14.614Z,9.63
2023-03-12T15:25:25.850Z,7.53
2023-03-12T15:28:29.903Z,9.40
2023-03-12T15:31:42.723Z,9.93
2023-03-12T15:34:46.172Z,7.38
2023-03-12T15:37:53.558Z,7.80
2023-03-12T15:41:00.537Z,8.63
2023-03-12T15:44:04.040Z,7.70
2023-03-12T15:47:12.581Z,6.88
2023-03-12T15:50:22.813Z,6.78
2023-03-12T15:53:30.970Z,10.40
2023-03-12T15:56:36.556Z,6.25
2023-03-12T15:59:39.806Z,7.28
2023-03-12T16:02:50.121Z,10.43
2023-03-12T16:05:53.720Z,9.70
2023-03-12T16:09:00.514Z,9.27
2023-03-12T16:12:03.812Z,8.15
2023-03-12T16:15:07.814Z,9.48
2023-03-12T16:18:14.549Z,8.07
2023-03-12T16:21:17.778Z,10.13
2023-03-12T16:24:22.287Z,9.95
2023-03-12T16:27:32.483Z,8.88
2023-03-12T16:34:19.961Z,15.38
2023-03-12T16:37:23.103Z,10.95
2023-03-12T16:40:33.226Z,9.88
2023-03-12T16:43:38.006Z,11.65
2023-03-12T16:46:41.247Z,12.02
2023-03-12T16:49:45.845Z,11.15
2023-03-12T16:52:51.098Z,8.40
2023-03-12T16:55:57.587Z,13.40
2023-03-12T16:59:06.427Z,9.40
2023-03-12T17:02:16.199Z,9.60
2023-03-12T17:05:20.923Z,12.30
2023-03-12T17:08:24.533Z,9.48
2023-03-12T17:11:32.741Z,9.00
2023-03-12T17:17:38.717Z,14.68
2023-03-12T17:20:43.684Z,14.93
2023-03-12T17:23:50.210Z,11.65
2023-03-12T17:26:53.684Z,14.07
2023-03-12T17:29:56.835Z,17.05
2023-03-12T17:33:03.447Z,17.17
2023-03-12T17:36:10.218Z,14.80
2023-03-12T17:39:13.346Z,12.68
2023-03-12T17:42:16.567Z,18.05
2023-03-12T17:45:21.447Z,21.83
2023-03-12T17:48:28.477Z,15.50
2023-03-12T17:51:33.070Z,18.77
2023-03-12T17:54:36.266Z,18.33
2023-03-12T17:57:39.893Z,15.25
2023-03-12T18:00:43.122Z,15.95
2023-03-12T18:03:46.329Z,15.80
2023-03-12T18:06:50.892Z,24.20
2023-03-12T18:09:54.505Z,22.30
2023-03-12T18:12:57.646Z,19.98
2023-03-12T18:16:01.109Z,22.45
2023-03-12T18:19:04.444Z,19.95
2023-03-12T18:22:12.065Z,18.33
2023-03-12T18:25:15.355Z,18.40
2023-03-12T18:28:19.436Z,16.08
2023-03-12T18:31:22.967Z,22.05
2023-03-12T18:34:26.259Z,14.45
2023-03-12T18:37:31.984Z,15.10
2023-03-12T18:40:35.181Z,15.02
2023-03-12T18:43:38.282Z,11.43
2023-03-12T18:46:41.720Z,14.85
2023-03-12T18:49:45.156Z,14.48
2023-03-12T18:52:49.650Z,17.70
2023-03-12T18:55:54.018Z,15.73
2023-03-12T18:58:57.158Z,16.40
2023-03-12T19:02:01.346Z,14.60
2023-03-12T19:05:05.044Z,15.23
2023-03-12T19:08:09.862Z,15.68
2023-03-12T19:11:15.503Z,14.18
2023-03-12T19:14:18.905Z,17.08
2023-03-12T19:17:22.624Z,12.73
2023-03-12T19:20:26.076Z,14.02
2023-03-12T19:23:30.937Z,15.15
2023-03-12T19:26:34.142Z,13.93
2023-03-12T19:29:37.298Z,13.15
2023-03-12T19:32:44.046Z,13.05
2023-03-12T19:35:47.866Z,25.70
2023-03-12T19:38:52.342Z,15.48
2023-03-12T19:41:55.691Z,24.77
2023-03-12T19:44:58.898Z,10.80
2023-03-12T19:48:03.085Z,23.98
2023-03-12T19:51:07.446Z,22.17
2023-03-12T19:54:11.945Z,18.90
2023-03-12T19:57:15.123Z,15.82
2023-03-12T20:00:18.946Z,20.52
2023-03-12T20:03:23.036Z,16.27
2023-03-12T20:06:26.939Z,17.00
2023-03-12T20:09:32.004Z,13.35
2023-03-12T20:12:35.168Z,18.70
2023-03-12T20:15:39.520Z,17.08
2023-03-12T20:18:42.840Z,12.40
2023-03-12T20:21:48.113Z,11.32
2023-03-12T20:24:52.623Z,9.63
2023-03-12T20:27:56.043Z,9.77
2023-03-12T20:31:08.022Z,9.73
2023-03-12T20:34:11.225Z,10.70
2023-03-12T20:37:14.433Z,12.90
2023-03-12T20:40:19.386Z,9.98
2023-03-12T20:43:22.588Z,9.45
2023-03-12T20:46:25.925Z,11.48
2023-03-12T20:49:29.336Z,11.00
2023-03-12T20:52:32.520Z,6.47
2023-03-12T20:55:38.657Z,9.40
2023-03-12T20:58:41.781Z,14.45
2023-03-12T21:01:45.112Z,15.07
2023-03-12T21:04:49.385Z,13.05
2023-03-12T21:07:58.062Z,11.60
2023-03-12T21:11:05.834Z,9.98
2023-03-12T21:14:09.013Z,8.52
2023-03-12T21:17:13.673Z,11.32
2023-03-12T21:20:18.675Z,8.25
2023-03-12T21:23:22.153Z,8.90
2023-03-12T21:26:26.676Z,10.10
2023-03-12T21:29:29.864Z,8.88
2023-03-12T21:32:33.255Z,12.07
2023-03-12T21:35:36.557Z,11.30
2023-03-12T21:38:42.589Z,11.38
2023-03-12T21:41:47.171Z,11.73
2023-03-12T21:44:50.370Z,12.82
2023-03-12T21:47:53.909Z,13.38
2023-03-12T21:50:57.054Z,12.20
2023-03-12T21:54:00.958Z,13.90
2023-03-12T21:57:06.435Z,20.17
2023-03-12T22:00:13.867Z,58.50
2023-03-12T22:03:16.965Z,58.20
2023-03-12T22:06:20.834Z,47.45
2023-03-12T22:09:24.124Z,29.30
2023-03-12T22:12:28.575Z,51.25
2023-03-12T22:15:31.914Z,35.10
2023-03-12T22:18:38.286Z,16.27
2023-03-12T22:21:42.794Z,15.57
2023-03-12T22:24:46.292Z,13.32
2023-03-12T22:27:50.764Z,10.43
2023-03-12T22:34:20.081Z,40.17
2023-03-12T22:37:23.241Z,24.52
2023-03-12T22:40:27.114Z,20.38
2023-03-12T22:43:30.293Z,65.72
2023-03-12T22:46:34.297Z,30.33
2023-03-12T22:49:39.347Z,24.17
2023-03-12T22:52:42.540Z,17.73
2023-03-12T22:55:45.690Z,21.55
2023-03-12T22:58:49.509Z,19.50
2023-03-12T23:01:52.717Z,18.40
2023-03-12T23:04:57.308Z,21.88
2023-03-12T23:08:00.676Z,34.90
2023-03-12T23:11:05.857Z,30.33
2023-03-12T23:14:09.353Z,37.90
2023-03-12T23:17:12.654Z,15.68
2023-03-12T23:20:17.368Z,28.52
2023-03-12T23:23:20.496Z,16.70
2023-03-12T23:26:26.481Z,14.75
2023-03-12T23:29:30.604Z,32.50
2023-03-12T23:32:35.445Z,34.63
2023-03-12T23:35:39.939Z,63.58
2023-03-12T23:38:44.104Z,41.78
2023-03-12T23:41:47.464Z,16.02
2023-03-12T23:44:50.657Z,19.60
2023-03-12T23:47:53.863Z,14.15
2023-03-12T23:51:06.739Z,36.25
2023-03-12T23:54:09.982Z,16.63
2023-03-12T23:57:13.131Z,13.90
